createdAt,value
2023-05-17T00:00:41.476Z,14.24
2023-05-17T00:01:41.410Z,14.23
2023-05-17T00:02:41.572Z,14.22
2023-05-17T00:03:41.404Z,14.24
2023-05-17T00:04:41.508Z,14.25
2023-05-17T00:05:41.421Z,14.26
2023-05-17T00:06:41.388Z,14.25
2023-05-17T00:07:41.379Z,14.25
2023-05-17T00:08:41.410Z,14.25
2023-05-17T00:09:41.373Z,14.23
2023-05-17T00:10:41.369Z,14.22
2023-05-17T00:11:41.380Z,14.22
2023-05-17T00:12:41.414Z,14.22
2023-05-17T00:13:41.366Z,14.22
2023-05-17T00:14:41.346Z,14.23
2023-05-17T00:15:41.356Z,14.21
2023-05-17T00:16:41.329Z,14.18
2023-05-17T00:17:41.474Z,14.17
2023-05-17T00:18:41.459Z,14.17
2023-05-17T00:19:41.375Z,14.17
2023-05-17T00:20:41.484Z,14.16
2023-05-17T00:21:41.291Z,14.16
2023-05-17T00:22:41.273Z,14.17
2023-05-17T00:23:41.281Z,14.17
2023-05-17T00:24:41.267Z,14.17
2023-05-17T00:25:41.307Z,14.16
2023-05-17T00:26:41.289Z,14.16
2023-05-17T00:27:41.335Z,14.15
2023-05-17T00:28:41.260Z,14.14
2023-05-17T00:29:41.245Z,14.12
2023-05-17T00:30:41.242Z,14.10
2023-05-17T00:31:41.258Z,14.10
2023-05-17T00:32:41.519Z,14.10
2023-05-17T00:33:41.235Z,14.12
2023-05-17T00:34:41.228Z,14.14
2023-05-17T00:35:41.249Z,14.14
2023-05-17T00:36:41.365Z,14.14
2023-05-17T00:37:41.472Z,14.13
2023-05-17T00:38:41.364Z,14.14
2023-05-17T00:39:41.405Z,14.15
2023-05-17T00:40:41.435Z,14.15
2023-05-17T00:41:41.529Z,14.17
2023-05-17T00:42:41.949Z,14.16
2023-05-17T00:43:41.635Z,14.15
2023-05-17T00:44:41.663Z,14.14
2023-05-17T00:45:41.752Z,14.12
2023-05-17T00:46:41.832Z,14.12
2023-05-17T00:47:41.993Z,14.10
2023-05-17T00:48:42.060Z,14.06
2023-05-17T00:49:41.996Z,14.00
2023-05-17T00:50:42.080Z,14.01
2023-05-17T00:51:42.173Z,14.01
2023-05-17T00:52:42.326Z,14.00
2023-05-17T00:53:42.282Z,13.99
2023-05-17T00:54:42.398Z,14.00
2023-05-17T00:55:42.409Z,14.02
2023-05-17T00:56:42.445Z,14.03
2023-05-17T00:57:42.924Z,14.04
2023-05-17T00:58:42.558Z,14.03
2023-05-17T00:59:42.593Z,14.04
2023-05-17T01:00:42.710Z,14.03
2023-05-17T01:01:42.760Z,14.01
2023-05-17T01:02:42.880Z,14.01
2023-05-17T01:03:42.883Z,14.01
2023-05-17T01:04:42.894Z,13.99
2023-05-17T01:05:42.973Z,14.00
2023-05-17T01:06:42.998Z,14.00
2023-05-17T01:07:43.056Z,14.00
2023-05-17T01:08:43.269Z,14.00
2023-05-17T01:09:43.171Z,14.00
2023-05-17T01:10:43.938Z,13.98
2023-05-17T01:11:43.247Z,13.97
2023-05-17T01:12:43.947Z,13.95
2023-05-17T01:13:43.255Z,13.94
2023-05-17T01:14:43.269Z,13.93
2023-05-17T01:15:43.282Z,13.92
2023-05-17T01:16:43.292Z,13.93
2023-05-17T01:17:43.382Z,13.94
2023-05-17T01:18:43.386Z,13.95
2023-05-17T01:19:43.375Z,13.92
2023-05-17T01:20:43.351Z,13.90
2023-05-17T01:21:43.362Z,13.86
2023-05-17T01:22:43.311Z,13.86
2023-05-17T01:23:43.410Z,13.86
2023-05-17T01:24:43.428Z,13.87
2023-05-17T01:25:43.349Z,13.86
2023-05-17T01:26:43.334Z,13.86
2023-05-17T01:27:43.335Z,13.87
2023-05-17T01:28:43.351Z,13.88
2023-05-17T01:29:43.336Z,13.86
2023-05-17T01:30:43.352Z,13.87
2023-05-17T01:31:43.368Z,13.88
2023-05-17T01:32:43.508Z,13.88
2023-05-17T01:33:43.507Z,13.87
2023-05-17T01:34:43.380Z,13.86
2023-05-17T01:35:43.407Z,13.84
2023-05-17T01:36:43.401Z,13.84
2023-05-17T01:37:43.423Z,13.80
2023-05-17T01:38:43.403Z,13.79
2023-05-17T01:39:43.371Z,13.81
2023-05-17T01:40:43.433Z,13.80
2023-05-17T01:41:43.400Z,13.79
2023-05-17T01:42:43.369Z,13.79
2023-05-17T01:43:43.392Z,13.77
2023-05-17T01:44:43.390Z,13.77
2023-05-17T01:45:43.411Z,13.76
2023-05-17T01:46:43.422Z,13.76
2023-05-17T01:47:43.420Z,13.75
2023-05-17T01:48:43.442Z,13.72
2023-05-17T01:49:43.424Z,13.72
2023-05-17T01:50:43.460Z,13.71
2023-05-17T01:51:43.435Z,13.67
2023-05-17T01:52:43.447Z,13.63
2023-05-17T01:53:43.455Z,13.62
2023-05-17T01:54:43.490Z,13.61
2023-05-17T01:55:43.494Z,13.61
2023-05-17T01:56:43.551Z,13.63
2023-05-17T01:57:43.486Z,13.65
2023-05-17T01:58:43.507Z,13.66
2023-05-17T01:59:43.500Z,13.65
2023-05-17T02:00:43.532Z,13.63
2023-05-17T02:01:43.557Z,13.63
2023-05-17T02:02:43.983Z,13.62
2023-05-17T02:03:43.625Z,13.62
2023-05-17T02:04:43.628Z,13.62
2023-05-17T02:05:43.607Z,13.62
2023-05-17T02:06:43.598Z,13.53
2023-05-17T02:07:43.629Z,13.50
2023-05-17T02:08:43.610Z,13.52
2023-05-17T02:09:43.587Z,13.54
2023-05-17T02:10:43.653Z,13.54
2023-05-17T02:11:43.637Z,13.54
2023-05-17T02:12:43.707Z,13.55
2023-05-17T02:13:43.678Z,13.54
2023-05-17T02:14:43.691Z,13.54
2023-05-17T02:15:43.690Z,13.54
2023-05-17T02:16:43.727Z,13.54
2023-05-17T02:17:43.810Z,13.55
2023-05-17T02:18:43.859Z,13.57
2023-05-17T02:19:43.792Z,13.58
2023-05-17T02:20:43.814Z,13.58
2023-05-17T02:21:43.852Z,13.57
2023-05-17T02:22:43.872Z,13.56
2023-05-17T02:23:43.849Z,13.57
2023-05-17T02:24:43.869Z,13.47
2023-05-17T02:25:43.911Z,13.38
2023-05-17T02:26:43.896Z,13.31
2023-05-17T02:27:43.903Z,13.23
2023-05-17T02:28:43.913Z,13.13
2023-05-17T02:29:43.938Z,13.07
2023-05-17T02:30:43.977Z,13.08
2023-05-17T02:31:43.916Z,13.16
2023-05-17T02:32:44.002Z,13.15
2023-05-17T02:33:44.000Z,13.09
2023-05-17T02:34:43.965Z,13.03
2023-05-17T02:35:44.025Z,13.02
2023-05-17T02:36:44.012Z,13.02
2023-05-17T02:37:44.028Z,12.99
2023-05-17T02:38:44.015Z,13.01
2023-05-17T02:39:44.029Z,13.01
2023-05-17T02:40:44.041Z,13.00
2023-05-17T02:41:44.083Z,13.05
2023-05-17T02:42:44.046Z,13.02
2023-05-17T02:43:44.096Z,13.02
2023-05-17T02:44:44.154Z,13.03
2023-05-17T02:45:44.134Z,12.96
2023-05-17T02:46:44.130Z,12.94
2023-05-17T02:47:44.196Z,12.93
2023-05-17T02:48:44.162Z,12.92
2023-05-17T02:49:44.194Z,12.90
2023-05-17T02:50:44.207Z,12.90
2023-05-17T02:51:44.257Z,12.88
2023-05-17T02:52:44.260Z,12.85
2023-05-17T02:53:44.277Z,12.83
2023-05-17T02:54:44.272Z,12.75
2023-05-17T02:55:44.288Z,12.81
2023-05-17T02:56:44.344Z,12.75
2023-05-17T02:57:44.358Z,12.75
2023-05-17T02:58:44.331Z,12.74
2023-05-17T02:59:44.380Z,12.76
2023-05-17T03:00:44.483Z,12.75
2023-05-17T03:01:44.375Z,12.72
2023-05-17T03:02:44.459Z,12.66
2023-05-17T03:03:44.677Z,12.59
2023-05-17T03:04:44.543Z,12.57
2023-05-17T03:05:44.508Z,12.58
2023-05-17T03:06:44.540Z,12.59
2023-05-17T03:07:44.510Z,12.59
2023-05-17T03:08:44.529Z,12.60
2023-05-17T03:09:44.539Z,12.66
2023-05-17T03:10:44.539Z,12.60
2023-05-17T03:11:44.577Z,12.54
2023-05-17T03:12:44.599Z,12.53
2023-05-17T03:13:44.622Z,12.55
2023-05-17T03:14:44.673Z,12.52
2023-05-17T03:15:44.682Z,12.61
2023-05-17T03:16:44.764Z,12.61
2023-05-17T03:17:44.805Z,12.53
2023-05-17T03:18:44.941Z,12.40
2023-05-17T03:19:44.816Z,12.37
2023-05-17T03:20:44.827Z,12.40
2023-05-17T03:21:44.853Z,12.46
2023-05-17T03:22:44.888Z,12.46
2023-05-17T03:23:44.941Z,12.48
2023-05-17T03:24:44.942Z,12.57
2023-05-17T03:25:45.033Z,12.60
2023-05-17T03:26:45.147Z,12.53
2023-05-17T03:27:45.278Z,12.41
2023-05-17T03:28:45.170Z,12.34
2023-05-17T03:29:45.219Z,12.40
2023-05-17T03:30:45.270Z,12.42
2023-05-17T03:31:45.276Z,12.42
2023-05-17T03:32:45.651Z,12.42
2023-05-17T03:33:45.488Z,12.42
2023-05-17T03:34:45.441Z,12.36
2023-05-17T03:35:45.434Z,12.37
2023-05-17T03:36:45.468Z,12.41
2023-05-17T03:37:45.500Z,12.39
2023-05-17T03:38:45.495Z,12.37
2023-05-17T03:39:45.533Z,12.37
2023-05-17T03:40:45.567Z,12.39
2023-05-17T03:41:45.578Z,12.35
2023-05-17T03:42:45.631Z,12.41
2023-05-17T03:43:45.652Z,12.41
2023-05-17T03:44:45.695Z,12.44
2023-05-17T03:45:45.749Z,12.45
2023-05-17T03:46:45.749Z,12.39
2023-05-17T03:47:45.872Z,12.39
2023-05-17T03:48:45.941Z,12.41
2023-05-17T03:49:45.930Z,12.41
2023-05-17T03:50:45.975Z,12.42
2023-05-17T03:51:46.087Z,12.55
2023-05-17T03:52:46.176Z,12.58
2023-05-17T03:53:46.205Z,12.63
2023-05-17T03:54:47.572Z,12.64
2023-05-17T03:55:46.320Z,12.60
2023-05-17T03:56:46.371Z,12.54
2023-05-17T03:57:46.451Z,12.49
2023-05-17T03:58:46.474Z,12.47
2023-05-17T03:59:46.543Z,12.37
2023-05-17T04:00:46.520Z,12.37
2023-05-17T04:01:46.537Z,12.31
2023-05-17T04:02:46.623Z,12.27
2023-05-17T04:03:46.706Z,12.23
2023-05-17T04:04:46.784Z,12.21
2023-05-17T04:05:46.767Z,12.23
2023-05-17T04:06:46.822Z,12.29
2023-05-17T04:07:46.850Z,12.33
2023-05-17T04:08:46.887Z,12.43
2023-05-17T04:09:46.936Z,12.47
2023-05-17T04:10:47.019Z,12.50
2023-05-17T04:11:47.033Z,12.52
2023-05-17T04:12:47.121Z,12.40
2023-05-17T04:13:47.180Z,12.47
2023-05-17T04:14:47.256Z,12.50
2023-05-17T04:15:47.342Z,12.56
2023-05-17T04:16:47.382Z,12.61
2023-05-17T04:17:47.546Z,12.65
2023-05-17T04:18:47.673Z,12.73
2023-05-17T04:19:47.571Z,12.76
2023-05-17T04:20:47.759Z,12.68
2023-05-17T04:21:47.658Z,12.49
2023-05-17T04:22:47.756Z,12.43
2023-05-17T04:23:47.740Z,12.37
2023-05-17T04:24:47.819Z,12.34
2023-05-17T04:25:47.813Z,12.35
2023-05-17T04:26:47.870Z,12.33
2023-05-17T04:27:47.950Z,12.31
2023-05-17T04:28:47.935Z,12.28
2023-05-17T04:29:47.989Z,12.27
2023-05-17T04:30:48.001Z,12.31
2023-05-17T04:31:48.065Z,12.28
2023-05-17T04:32:48.130Z,12.24
2023-05-17T04:33:48.213Z,12.26
2023-05-17T04:34:48.244Z,12.21
2023-05-17T04:35:48.295Z,12.24
2023-05-17T04:36:48.397Z,12.29
2023-05-17T04:37:48.363Z,12.33
2023-05-17T04:38:48.420Z,12.33
2023-05-17T04:39:48.516Z,12.39
2023-05-17T04:40:48.606Z,12.42
2023-05-17T04:41:48.599Z,12.43
2023-05-17T04:42:48.666Z,12.39
2023-05-17T04:43:48.711Z,12.30
2023-05-17T04:44:48.792Z,12.31
2023-05-17T04:45:48.800Z,12.33
2023-05-17T04:46:48.832Z,12.32
2023-05-17T04:47:48.925Z,12.33
2023-05-17T04:48:48.972Z,12.35
2023-05-17T04:49:49.058Z,12.31
2023-05-17T04:50:49.152Z,12.29
2023-05-17T04:51:49.178Z,12.26
2023-05-17T04:52:49.328Z,12.25
2023-05-17T04:53:49.349Z,12.29
2023-05-17T04:54:49.392Z,12.31
2023-05-17T04:55:49.420Z,12.39
2023-05-17T04:56:49.503Z,12.44
2023-05-17T04:57:49.566Z,12.50
2023-05-17T04:58:50.989Z,12.49
2023-05-17T04:59:49.797Z,12.48
2023-05-17T05:00:49.836Z,12.50
2023-05-17T05:01:49.896Z,12.57
2023-05-17T05:02:50.020Z,12.65
2023-05-17T05:03:50.048Z,12.69
2023-05-17T05:04:50.075Z,12.72
2023-05-17T05:05:50.146Z,12.76
2023-05-17T05:06:50.253Z,12.81
2023-05-17T05:07:50.265Z,12.84
2023-05-17T05:08:50.389Z,12.80
2023-05-17T05:09:50.402Z,12.75
2023-05-17T05:10:50.491Z,12.67
2023-05-17T05:11:50.549Z,12.62
2023-05-17T05:12:50.647Z,12.56
2023-05-17T05:13:50.709Z,12.58
2023-05-17T05:14:50.769Z,12.49
2023-05-17T05:15:50.795Z,12.46
2023-05-17T05:16:50.867Z,12.44
2023-05-17T05:17:51.031Z,12.41
2023-05-17T05:18:51.091Z,12.36
2023-05-17T05:19:51.110Z,12.32
2023-05-17T05:20:51.075Z,12.30
2023-05-17T05:21:51.114Z,12.28
2023-05-17T05:22:51.211Z,12.37
2023-05-17T05:23:51.257Z,12.40
2023-05-17T05:24:51.401Z,12.48
2023-05-17T05:25:51.383Z,12.54
2023-05-17T05:26:51.460Z,12.50
2023-05-17T05:27:51.554Z,12.55
2023-05-17T05:28:51.584Z,12.62
2023-05-17T05:29:51.633Z,12.67
2023-05-17T05:30:51.708Z,12.71
2023-05-17T05:31:51.750Z,12.76
2023-05-17T05:32:51.882Z,12.68
2023-05-17T05:33:51.914Z,12.71
2023-05-17T05:34:51.938Z,12.72
2023-05-17T05:35:52.001Z,12.69
2023-05-17T05:36:52.081Z,12.65
2023-05-17T05:37:52.137Z,12.70
2023-05-17T05:38:52.172Z,12.69
2023-05-17T05:39:52.183Z,12.85
2023-05-17T05:40:52.297Z,12.97
2023-05-17T05:41:52.268Z,12.88
2023-05-17T05:42:52.300Z,12.85
2023-05-17T05:43:52.307Z,12.81
2023-05-17T05:44:52.363Z,12.77
2023-05-17T05:45:52.397Z,12.76
2023-05-17T05:46:52.388Z,12.64
2023-05-17T05:47:52.484Z,12.48
2023-05-17T05:48:52.570Z,12.51
2023-05-17T05:49:52.583Z,12.53
2023-05-17T05:50:52.656Z,12.62
2023-05-17T05:51:52.724Z,12.67
2023-05-17T05:52:56.254Z,12.74
2023-05-17T05:53:53.751Z,12.78
2023-05-17T05:54:52.742Z,12.81
2023-05-17T05:55:52.729Z,12.80
2023-05-17T05:56:52.825Z,12.83
2023-05-17T05:57:52.711Z,12.87
2023-05-17T05:58:52.725Z,12.89
2023-05-17T05:59:52.696Z,12.92
2023-05-17T06:00:52.701Z,12.84
2023-05-17T06:01:52.738Z,12.86
2023-05-17T06:02:52.926Z,12.77
2023-05-17T06:03:52.919Z,12.81
2023-05-17T06:04:53.006Z,12.78
2023-05-17T06:05:53.122Z,12.61
2023-05-17T06:06:53.194Z,12.54
2023-05-17T06:07:53.166Z,12.39
2023-05-17T06:08:53.207Z,12.38
2023-05-17T06:09:53.282Z,12.36
2023-05-17T06:10:53.358Z,12.34
2023-05-17T06:11:53.395Z,12.35
2023-05-17T06:12:53.677Z,12.32
2023-05-17T06:13:54.024Z,12.24
2023-05-17T06:14:53.548Z,12.25
2023-05-17T06:15:53.630Z,12.23
2023-05-17T06:16:53.705Z,12.23
2023-05-17T06:17:54.087Z,12.23
2023-05-17T06:18:53.922Z,12.21
2023-05-17T06:19:53.916Z,12.18
2023-05-17T06:20:53.947Z,12.18
2023-05-17T06:21:54.013Z,12.21
2023-05-17T06:22:54.062Z,12.19
2023-05-17T06:23:54.152Z,12.21
2023-05-17T06:24:54.208Z,12.23
2023-05-17T06:25:54.242Z,12.24
2023-05-17T06:26:54.313Z,12.22
2023-05-17T06:27:54.341Z,12.23
2023-05-17T06:28:54.493Z,12.27
2023-05-17T06:29:54.517Z,12.26
2023-05-17T06:30:54.634Z,12.26
2023-05-17T06:31:54.654Z,12.26
2023-05-17T06:32:54.771Z,12.28
2023-05-17T06:33:54.838Z,12.34
2023-05-17T06:34:54.827Z,12.35
2023-05-17T06:35:57.613Z,12.33
2023-05-17T06:36:54.901Z,12.31
2023-05-17T06:37:54.940Z,12.26
2023-05-17T06:38:54.856Z,12.27
2023-05-17T06:40:00.043Z,12.26
2023-05-17T06:40:55.855Z,12.16
2023-05-17T06:41:54.845Z,12.16
2023-05-17T06:42:54.866Z,12.15
2023-05-17T06:43:54.836Z,12.13
2023-05-17T06:45:03.239Z,12.11
2023-05-17T06:46:03.101Z,12.09
2023-05-17T06:47:04.848Z,12.04
2023-05-17T06:49:14.606Z,12.14
2023-05-17T06:50:24.561Z,12.23
2023-05-17T06:51:14.561Z,12.35
2023-05-17T06:52:24.542Z,12.60
2023-05-17T06:53:14.558Z,12.63
2023-05-17T06:54:14.573Z,12.84
2023-05-17T06:55:14.542Z,12.96
2023-05-17T06:56:14.518Z,13.14
2023-05-17T06:57:14.547Z,13.40
2023-05-17T06:58:14.515Z,13.27
2023-05-17T06:59:14.518Z,13.13
2023-05-17T07:00:14.548Z,13.10
2023-05-17T07:01:14.616Z,12.99
2023-05-17T07:02:14.479Z,12.84
2023-05-17T07:03:14.809Z,12.76
2023-05-17T07:04:14.691Z,12.73
2023-05-17T07:05:14.523Z,12.58
2023-05-17T07:06:14.439Z,12.56
2023-05-17T07:07:14.437Z,12.48
2023-05-17T07:08:14.447Z,12.40
2023-05-17T07:09:14.439Z,12.39
2023-05-17T07:10:14.452Z,12.49
2023-05-17T07:11:14.434Z,12.58
2023-05-17T07:12:14.455Z,12.65
2023-05-17T07:13:14.397Z,12.71
2023-05-17T07:14:14.386Z,12.71
2023-05-17T07:15:14.417Z,12.61
2023-05-17T07:16:14.671Z,12.54
2023-05-17T07:17:14.390Z,12.51
2023-05-17T07:18:14.846Z,12.50
2023-05-17T07:19:14.529Z,12.48
2023-05-17T07:20:14.408Z,12.50
2023-05-17T07:21:14.347Z,12.46
2023-05-17T07:22:14.417Z,12.57
2023-05-17T07:23:14.458Z,12.63
2023-05-17T07:24:14.548Z,12.72
2023-05-17T07:25:14.560Z,12.77
2023-05-17T07:26:14.654Z,12.83
2023-05-17T07:27:14.693Z,12.85
2023-05-17T07:28:14.807Z,12.85
2023-05-17T07:29:14.826Z,12.83
2023-05-17T07:30:14.900Z,12.85
2023-05-17T07:31:14.950Z,12.80
2023-05-17T07:32:15.059Z,12.77
2023-05-17T07:33:15.092Z,12.82
2023-05-17T07:34:15.280Z,12.74
2023-05-17T07:35:15.182Z,12.74
2023-05-17T07:36:15.335Z,12.79
2023-05-17T07:37:15.355Z,12.83
2023-05-17T07:38:15.396Z,12.88
2023-05-17T07:39:15.470Z,12.91
2023-05-17T07:40:15.520Z,12.92
2023-05-17T07:41:15.583Z,12.94
2023-05-17T07:42:15.616Z,12.97
2023-05-17T07:43:15.695Z,12.92
2023-05-17T07:44:15.734Z,12.91
2023-05-17T07:45:15.849Z,12.89
2023-05-17T07:46:15.925Z,12.87
2023-05-17T07:47:16.061Z,12.92
2023-05-17T07:48:16.575Z,12.91
2023-05-17T07:49:16.122Z,12.95
2023-05-17T07:50:16.118Z,12.99
2023-05-17T07:51:16.192Z,13.03
2023-05-17T07:52:16.436Z,13.03
2023-05-17T07:53:16.285Z,12.88
2023-05-17T07:54:16.314Z,12.81
2023-05-17T07:55:17.152Z,12.75
2023-05-17T07:56:16.525Z,12.68
2023-05-17T07:57:17.314Z,12.57
2023-05-17T07:58:17.451Z,12.46
2023-05-17T07:59:16.518Z,12.39
2023-05-17T08:00:16.469Z,12.45
2023-05-17T08:01:16.446Z,12.46
2023-05-17T08:02:16.421Z,12.44
2023-05-17T08:03:17.536Z,12.52
2023-05-17T08:04:16.472Z,12.60
2023-05-17T08:05:16.422Z,12.69
2023-05-17T08:06:16.500Z,12.68
2023-05-17T08:07:16.419Z,12.59
2023-05-17T08:08:16.412Z,12.48
2023-05-17T08:09:16.383Z,12.43
2023-05-17T08:10:16.380Z,12.46
2023-05-17T08:11:16.333Z,12.43
2023-05-17T08:12:16.365Z,12.44
2023-05-17T08:13:16.341Z,12.45
2023-05-17T08:14:16.374Z,12.44
2023-05-17T08:15:16.354Z,12.49
2023-05-17T08:16:16.331Z,12.53
2023-05-17T08:17:16.323Z,12.55
2023-05-17T08:18:16.428Z,12.50
2023-05-17T08:19:16.523Z,12.45
2023-05-17T08:20:16.286Z,12.41
2023-05-17T08:21:16.361Z,12.43
2023-05-17T08:22:16.400Z,12.53
2023-05-17T08:23:16.796Z,12.53
2023-05-17T08:24:16.528Z,12.53
2023-05-17T08:25:16.596Z,12.61
2023-05-17T08:26:16.749Z,12.61
2023-05-17T08:27:16.725Z,12.57
2023-05-17T08:28:17.712Z,12.62
2023-05-17T08:29:16.849Z,12.66
2023-05-17T08:30:28.153Z,12.66
2023-05-17T08:31:17.869Z,12.61
2023-05-17T08:32:16.848Z,12.53
2023-05-17T08:33:16.984Z,12.53
2023-05-17T08:34:16.924Z,12.59
2023-05-17T08:35:16.807Z,12.58
2023-05-17T08:36:16.804Z,12.63
2023-05-17T08:37:16.880Z,12.69
2023-05-17T08:38:18.641Z,12.72
2023-05-17T08:39:16.835Z,12.79
2023-05-17T08:40:16.879Z,12.80
2023-05-17T08:41:16.787Z,12.79
2023-05-17T08:42:16.814Z,12.77
2023-05-17T08:43:16.793Z,12.72
2023-05-17T08:44:16.819Z,12.66
2023-05-17T08:45:16.761Z,12.76
2023-05-17T08:46:16.759Z,12.85
2023-05-17T08:47:16.744Z,12.78
2023-05-17T08:48:16.860Z,12.71
2023-05-17T08:49:16.843Z,12.65
2023-05-17T08:50:16.753Z,12.63
2023-05-17T08:51:16.724Z,12.62
2023-05-17T08:52:16.719Z,12.54
2023-05-17T08:53:16.838Z,12.50
2023-05-17T08:54:16.755Z,12.58
2023-05-17T08:55:16.866Z,12.70
2023-05-17T08:56:16.709Z,12.76
2023-05-17T08:57:16.687Z,12.82
2023-05-17T08:58:16.718Z,12.71
2023-05-17T08:59:16.709Z,12.71
2023-05-17T09:00:16.677Z,12.65
2023-05-17T09:01:16.637Z,12.57
2023-05-17T09:02:16.640Z,12.49
2023-05-17T09:03:16.726Z,12.40
2023-05-17T09:04:16.712Z,12.34
2023-05-17T09:05:16.700Z,12.39
2023-05-17T09:06:16.641Z,12.41
2023-05-17T09:07:17.420Z,12.45
2023-05-17T09:08:16.768Z,12.48
2023-05-17T09:09:16.805Z,12.52
2023-05-17T09:10:16.889Z,12.46
2023-05-17T09:11:16.906Z,12.46
2023-05-17T09:12:16.953Z,12.50
2023-05-17T09:13:17.000Z,12.56
2023-05-17T09:14:17.063Z,12.63
2023-05-17T09:15:17.186Z,12.69
2023-05-17T09:16:17.250Z,12.69
2023-05-17T09:17:17.296Z,12.66
2023-05-17T09:18:19.509Z,12.65
2023-05-17T09:19:17.767Z,12.66
2023-05-17T09:20:17.635Z,12.66
2023-05-17T09:21:17.518Z,12.73
2023-05-17T09:22:17.619Z,12.81
2023-05-17T09:23:17.641Z,12.86
2023-05-17T09:24:17.830Z,12.85
2023-05-17T09:25:17.906Z,12.86
2023-05-17T09:26:17.924Z,12.84
2023-05-17T09:27:17.975Z,12.80
2023-05-17T09:28:18.057Z,12.75
2023-05-17T09:29:18.067Z,12.71
2023-05-17T09:30:18.111Z,12.63
2023-05-17T09:31:18.175Z,12.63
2023-05-17T09:32:18.204Z,12.70
2023-05-17T09:33:18.973Z,12.79
2023-05-17T09:34:18.307Z,12.84
2023-05-17T09:35:18.334Z,12.88
2023-05-17T09:36:18.379Z,12.93
2023-05-17T09:37:18.424Z,12.94
2023-05-17T09:38:18.446Z,12.96
2023-05-17T09:39:18.517Z,12.95
2023-05-17T09:40:18.612Z,12.90
2023-05-17T09:41:18.630Z,12.89
2023-05-17T09:42:18.674Z,12.86
2023-05-17T09:43:18.705Z,12.85
2023-05-17T09:44:18.770Z,12.83
2023-05-17T09:45:18.792Z,12.90
2023-05-17T09:46:18.878Z,12.88
2023-05-17T09:47:18.961Z,12.80
2023-05-17T09:48:19.012Z,12.73
2023-05-17T09:49:18.913Z,12.67
2023-05-17T09:50:18.986Z,12.67
2023-05-17T09:51:19.009Z,12.62
2023-05-17T09:52:19.056Z,12.71
2023-05-17T09:53:19.156Z,12.82
2023-05-17T09:54:19.135Z,12.89
2023-05-17T09:55:19.164Z,12.94
2023-05-17T09:56:19.190Z,12.85
2023-05-17T09:57:19.191Z,12.72
2023-05-17T09:58:19.256Z,12.66
2023-05-17T09:59:19.321Z,12.72
2023-05-17T10:00:19.384Z,12.77
2023-05-17T10:01:19.399Z,12.80
2023-05-17T10:02:19.418Z,12.85
2023-05-17T10:03:19.561Z,12.89
2023-05-17T10:04:19.572Z,12.94
2023-05-17T10:05:19.630Z,12.99
2023-05-17T10:06:38.477Z,13.02
2023-05-17T10:07:20.683Z,13.02
2023-05-17T10:08:19.695Z,13.01
2023-05-17T10:09:19.687Z,12.94
2023-05-17T10:10:19.782Z,12.87
2023-05-17T10:11:19.686Z,12.90
2023-05-17T10:12:19.676Z,12.93
2023-05-17T10:13:19.624Z,12.94
2023-05-17T10:14:19.753Z,12.91
2023-05-17T10:15:19.622Z,12.77
2023-05-17T10:16:19.651Z,12.71
2023-05-17T10:17:19.640Z,12.74
2023-05-17T10:18:19.813Z,12.71
2023-05-17T10:19:19.745Z,12.71
2023-05-17T10:20:19.737Z,12.78
2023-05-17T10:21:19.686Z,12.83
2023-05-17T10:22:23.205Z,12.87
2023-05-17T10:23:19.752Z,12.84
2023-05-17T10:24:19.752Z,12.86
2023-05-17T10:25:19.767Z,12.80
2023-05-17T10:26:19.714Z,12.79
2023-05-17T10:27:19.711Z,12.89
2023-05-17T10:28:19.705Z,12.86
2023-05-17T10:29:19.717Z,12.82
2023-05-17T10:30:19.688Z,12.82
2023-05-17T10:31:19.654Z,12.79
2023-05-17T10:32:19.748Z,12.79
2023-05-17T10:33:19.822Z,12.81
2023-05-17T10:34:19.851Z,12.75
2023-05-17T10:35:19.866Z,12.76
2023-05-17T10:36:19.740Z,12.74
2023-05-17T10:37:19.705Z,12.76
2023-05-17T10:38:20.504Z,12.83
2023-05-17T10:39:19.613Z,12.89
2023-05-17T10:40:19.656Z,12.86
2023-05-17T10:41:19.596Z,12.76
2023-05-17T10:42:19.629Z,12.74
2023-05-17T10:43:19.689Z,12.74
2023-05-17T10:44:19.681Z,12.75
2023-05-17T10:45:19.697Z,12.71
2023-05-17T10:46:19.686Z,12.72
2023-05-17T10:47:19.729Z,12.76
2023-05-17T10:48:19.818Z,12.86
2023-05-17T10:49:22.262Z,12.94
2023-05-17T10:50:19.756Z,13.02
2023-05-17T10:51:19.829Z,13.10
2023-05-17T10:52:19.733Z,13.10
2023-05-17T10:53:19.769Z,13.01
2023-05-17T10:54:19.783Z,13.02
2023-05-17T10:55:19.717Z,13.00
2023-05-17T10:56:19.756Z,13.05
2023-05-17T10:57:19.737Z,13.12
2023-05-17T10:58:19.735Z,13.17
2023-05-17T10:59:19.855Z,13.18
2023-05-17T11:00:19.690Z,13.07
2023-05-17T11:01:19.701Z,13.03
2023-05-17T11:02:19.653Z,13.10
2023-05-17T11:03:19.704Z,13.12
2023-05-17T11:04:19.748Z,13.17
2023-05-17T11:05:19.645Z,13.11
2023-05-17T11:06:25.485Z,13.06
2023-05-17T11:07:20.711Z,13.06
2023-05-17T11:08:19.627Z,13.08
2023-05-17T11:09:19.639Z,13.00
2023-05-17T11:10:19.649Z,12.91
2023-05-17T11:11:19.690Z,12.90
2023-05-17T11:12:19.581Z,12.91
2023-05-17T11:13:19.605Z,12.99
2023-05-17T11:14:19.637Z,13.08
2023-05-17T11:15:19.566Z,13.11
2023-05-17T11:16:19.579Z,13.10
2023-05-17T11:17:19.608Z,13.08
2023-05-17T11:18:30.487Z,13.07
2023-05-17T11:19:20.620Z,13.11
2023-05-17T11:20:19.701Z,13.08
2023-05-17T11:21:19.572Z,12.97
2023-05-17T11:22:19.573Z,13.03
2023-05-17T11:23:19.535Z,13.11
2023-05-17T11:24:20.935Z,13.21
2023-05-17T11:25:19.780Z,13.27
2023-05-17T11:26:19.773Z,13.30
2023-05-17T11:27:19.799Z,13.12
2023-05-17T11:28:19.789Z,12.97
2023-05-17T11:29:19.782Z,13.00
2023-05-17T11:30:19.785Z,13.04
2023-05-17T11:31:19.778Z,12.99
2023-05-17T11:32:19.805Z,13.02
2023-05-17T11:33:32.375Z,13.14
2023-05-17T11:34:20.895Z,13.13
2023-05-17T11:35:19.811Z,13.13
2023-05-17T11:36:19.767Z,13.14
2023-05-17T11:37:19.803Z,13.14
2023-05-17T11:38:19.791Z,13.20
2023-05-17T11:39:19.839Z,13.28
2023-05-17T11:40:19.742Z,13.26
2023-05-17T11:42:19.763Z,13.18
2023-05-17T11:43:19.734Z,13.07
2023-05-17T11:44:19.703Z,13.07
2023-05-17T11:45:19.711Z,13.13
2023-05-17T11:46:19.719Z,13.09
2023-05-17T11:47:19.791Z,13.00
2023-05-17T11:48:19.858Z,12.98
2023-05-17T11:49:34.105Z,13.03
2023-05-17T11:50:20.669Z,13.01
2023-05-17T11:51:21.207Z,12.99
2023-05-17T11:52:19.668Z,13.02
2023-05-17T11:53:19.746Z,12.97
2023-05-17T11:54:19.666Z,13.03
2023-05-17T11:55:19.662Z,13.01
2023-05-17T11:56:22.200Z,13.00
2023-05-17T11:57:19.655Z,13.07
2023-05-17T11:58:19.628Z,13.02
2023-05-17T11:59:19.684Z,12.98
2023-05-17T12:00:19.616Z,12.98
2023-05-17T12:01:19.645Z,12.98
2023-05-17T12:02:19.590Z,12.97
2023-05-17T12:03:19.657Z,12.91
2023-05-17T12:04:19.763Z,12.88
2023-05-17T12:05:19.612Z,12.98
2023-05-17T12:06:19.633Z,13.01
2023-05-17T12:07:19.588Z,13.03
2023-05-17T12:08:19.591Z,13.00
2023-05-17T12:09:19.645Z,12.98
2023-05-17T12:10:19.549Z,12.91
2023-05-17T12:11:19.558Z,12.83
2023-05-17T12:12:19.553Z,12.88
2023-05-17T12:13:19.538Z,12.94
2023-05-17T12:14:19.557Z,13.04
2023-05-17T12:15:19.533Z,13.12
2023-05-17T12:16:19.553Z,13.09
2023-05-17T12:17:19.543Z,13.05
2023-05-17T12:18:19.580Z,12.99
2023-05-17T12:19:19.627Z,12.95
2023-05-17T12:20:19.534Z,12.98
2023-05-17T12:21:19.479Z,13.19
2023-05-17T12:22:19.478Z,13.35
2023-05-17T12:23:19.554Z,13.27
2023-05-17T12:24:19.731Z,13.28
2023-05-17T12:25:19.681Z,13.38
2023-05-17T12:26:19.756Z,13.32
2023-05-17T12:27:19.821Z,13.31
2023-05-17T12:28:19.842Z,13.24
2023-05-17T12:29:19.921Z,13.17
2023-05-17T12:30:20.018Z,13.15
2023-05-17T12:31:20.032Z,13.13
2023-05-17T12:32:20.073Z,13.18
2023-05-17T12:33:20.267Z,13.21
2023-05-17T12:34:20.112Z,13.14
2023-05-17T12:35:20.152Z,13.11
2023-05-17T12:36:20.115Z,13.10
2023-05-17T12:37:20.170Z,13.13
2023-05-17T12:38:20.206Z,13.09
2023-05-17T12:39:20.206Z,13.11
2023-05-17T12:40:20.219Z,13.09
2023-05-17T12:41:20.285Z,13.05
2023-05-17T12:42:20.219Z,13.03
2023-05-17T12:43:20.260Z,12.99
2023-05-17T12:44:20.287Z,13.04
2023-05-17T12:45:20.248Z,13.03
2023-05-17T12:46:20.301Z,12.96
2023-05-17T12:47:20.301Z,13.03
2023-05-17T12:48:20.341Z,13.05
2023-05-17T12:49:20.341Z,13.02
2023-05-17T12:50:20.287Z,13.00
2023-05-17T12:51:20.301Z,12.93
2023-05-17T12:52:20.294Z,12.96
2023-05-17T12:53:20.341Z,12.95
2023-05-17T12:54:20.314Z,12.97
2023-05-17T12:55:20.357Z,12.93